This is the latest recevied weather packets stored in our database for station/object SP2ARK-10. If no packets are shown the sender has not sent any weather packets the latest 10 day(s).
| Time | Temp. | Humidity | Pressure | Rain* | Wind** | Luminosity | Snow |
|---|---|---|---|---|---|---|---|
| 1777689197 | 12.78° C | 68% | 1029.9 hPa | - | - | - | - |
| 1777688296 | 12.78° C | 68% | 1030 hPa | - | - | - | - |
| 1777671181 | 15.56° C | 64% | 1030.4 hPa | - | - | - | - |
| 1777669379 | 16.11° C | 64% | 1030.3 hPa | - | - | - | - |
| 1777667578 | 16.67° C | 63% | 1030.3 hPa | - | - | - | - |
| 1777663075 | 19.44° C | 59% | 1030.2 hPa | - | - | - | - |
| 1777661274 | 20° C | 57% | 1030.1 hPa | - | - | - | - |
| 1777660373 | 20.56° C | 56% | 1030.1 hPa | - | - | - | - |
| 1777659473 | 21.11° C | 55% | 1030 hPa | - | - | - | - |
| 1777658573 | 21.67° C | 54% | 1029.9 hPa | - | - | - | - |
| 1777654970 | 22.78° C | 52% | 1029.8 hPa | - | - | - | - |
| 1777654069 | 23.33° C | 52% | 1029.8 hPa | - | - | - | - |
| 1777653168 | 23.89° C | 51% | 1029.9 hPa | - | - | - | - |
| 1777652302 | 25° C | 51% | 1029.9 hPa | - | - | - | - |
| 1777652267 | 25° C | 51% | 1029.9 hPa | - | - | - | - |
| 1777651367 | 25° C | 50% | 1030 hPa | - | - | - | - |
| 1777649566 | 25.56° C | 52% | 1030.1 hPa | - | - | - | - |
| 1777648665 | 25° C | 50% | 1030.1 hPa | - | - | - | - |
| 1777647764 | 25.56° C | 52% | 1030.3 hPa | - | - | - | - |
| 1777646864 | 25° C | 51% | 1030.4 hPa | - | - | - | - |
| 1777645964 | 25° C | 51% | 1030.5 hPa | - | - | - | - |
| 1777645063 | 24.44° C | 52% | 1030.7 hPa | - | - | - | - |
| 1777644162 | 24.44° C | 52% | 1030.7 hPa | - | - | - | - |
| 1777642361 | 23.89° C | 53% | 1030.7 hPa | - | - | - | - |
| 1777641461 | 23.33° C | 53% | 1030.9 hPa | - | - | - | - |
* Rain since midnight (hover to see other rain measurements)
** Current wind speed in m/s (hover to see current wind gust speed)